^^
Datos históricos de la estación: Murcia-Puente Tocinos
Diario Informe para Julio 7, 2019 Unidades:  Métrico    Inglés   Ambas
Diario Semanal Mensual Anual Configurable
  Máximo: Mínimo: Media:
Temperatura: 39.0 °C 26.7 °C 31.7 °C
Punto de rocio: 20.8 °C 12.5 °C 17.2 °C
Humedad: 67% 21% 46%
Velocidad viento: 26.2km/h 0.0km/h 9.6km/h
Racha viento: 48.1km/h - -
Viento- - SE
Presión: 1012.7 hPa 1005.7 hPa -
Precipitación: 0.0 mm    
Historical Graphs
 
 
Tabla de datos para Julio 7, 2019
Hora Temperatura Punto de rocio Presión Viento Velocidad viento Racha viento Humedad Intensidad lluvia(por hora) Nubes
00:04 28.2 °C 19.2 °C 1012.1 hPa NNE 10.0 km/h 5.8 km/h 58% 0.0 mm CLR
00:09 28.3 °C 18.4 °C 1012.1 hPa East 5.8 km/h 9.3 km/h 55% 0.0 mm CLR
00:14 28.7 °C 18.5 °C 1012.1 hPa NE 5.8 km/h 7.4 km/h 54% 0.0 mm CLR
00:19 28.8 °C 19.2 °C 1012.4 hPa WNW 5.0 km/h 14.8 km/h 56% 0.0 mm CLR
00:24 28.5 °C 19.4 °C 1012.4 hPa NW 5.0 km/h 20.4 km/h 58% 0.0 mm CLR
00:29 28.3 °C 19.5 °C 1012.4 hPa North 11.9 km/h 12.2 km/h 59% 0.0 mm CLR
00:34 28.2 °C 19.4 °C 1012.0 hPa West 11.9 km/h 14.8 km/h 59% 0.0 mm CLR
00:39 28.1 °C 19.3 °C 1012.0 hPa NW 10.3 km/h 14.8 km/h 59% 0.0 mm CLR
00:44 28.0 °C 19.2 °C 1012.0 hPa NW 10.3 km/h 11.1 km/h 59% 0.0 mm CLR
00:49 28.0 °C 19.5 °C 1012.2 hPa North 8.4 km/h 9.3 km/h 60% 0.0 mm CLR
00:54 28.0 °C 19.2 °C 1012.2 hPa NNE 8.4 km/h 9.5 km/h 59% 0.0 mm CLR
00:59 28.0 °C 19.2 °C 1012.2 hPa North 6.4 km/h 7.4 km/h 59% 0.0 mm CLR
01:04 28.0 °C 19.2 °C 1011.9 hPa NNW 6.4 km/h 9.3 km/h 59% 0.0 mm CLR
01:09 28.0 °C 19.2 °C 1011.9 hPa WNW 5.8 km/h 11.1 km/h 59% 0.0 mm CLR
01:14 27.9 °C 19.4 °C 1011.9 hPa NNE 5.8 km/h 5.6 km/h 60% 0.0 mm CLR
01:19 27.9 °C 19.7 °C 1012.1 hPa West 5.8 km/h 9.3 km/h 61% 0.0 mm CLR
01:24 27.8 °C 20.1 °C 1012.1 hPa West 5.8 km/h 16.7 km/h 63% 0.0 mm CLR
01:29 27.7 °C 20.5 °C 1012.1 hPa NW 10.0 km/h 11.1 km/h 65% 0.0 mm CLR
01:34 27.7 °C 20.8 °C 1012.7 hPa NE 10.0 km/h 9.3 km/h 66% 0.0 mm CLR
01:39 27.7 °C 20.8 °C 1012.7 hPa NE 5.8 km/h 8.4 km/h 66% 0.0 mm CLR
01:44 27.7 °C 20.8 °C 1012.7 hPa ENE 5.8 km/h 14.8 km/h 66% 0.0 mm CLR
01:49 27.7 °C 20.8 °C 1012.0 hPa NE 9.5 km/h 13.0 km/h 66% 0.0 mm CLR
01:54 27.6 °C 20.7 °C 1012.0 hPa ENE 9.5 km/h 12.2 km/h 66% 0.0 mm CLR
01:59 27.4 °C 20.5 °C 1012.0 hPa ESE 8.4 km/h 13.0 km/h 66% 0.0 mm CLR
02:04 27.3 °C 20.4 °C 1011.0 hPa ENE 8.4 km/h 12.2 km/h 66% 0.0 mm CLR
02:09 27.3 °C 20.4 °C 1011.0 hPa NNE 7.6 km/h 11.1 km/h 66% 0.0 mm CLR
02:14 27.3 °C 20.4 °C 1011.0 hPa NNE 7.6 km/h 14.8 km/h 66% 0.0 mm CLR
02:19 27.3 °C 20.6 °C 1010.6 hPa NE 11.9 km/h 27.0 km/h 67% 0.0 mm CLR
02:24 27.3 °C 20.6 °C 1010.6 hPa NE 11.9 km/h 25.9 km/h 67% 0.0 mm CLR
02:29 27.3 °C 20.4 °C 1010.6 hPa NE 19.0 km/h 22.2 km/h 66% 0.0 mm CLR
02:34 27.2 °C 20.3 °C 1010.7 hPa NE 19.0 km/h 24.1 km/h 66% 0.0 mm CLR
02:39 27.2 °C 20.1 °C 1010.7 hPa NNE 16.1 km/h 22.2 km/h 65% 0.0 mm CLR
02:44 27.3 °C 20.2 °C 1010.7 hPa NE 16.1 km/h 16.7 km/h 65% 0.0 mm CLR
02:49 27.3 °C 19.9 °C 1010.4 hPa NE 14.0 km/h 14.8 km/h 64% 0.0 mm CLR
02:54 27.3 °C 19.9 °C 1010.4 hPa NE 14.0 km/h 20.4 km/h 64% 0.0 mm CLR
02:59 27.3 °C 19.6 °C 1010.4 hPa North 11.9 km/h 18.5 km/h 63% 0.0 mm CLR
03:04 27.3 °C 19.9 °C 1010.3 hPa NNE 11.9 km/h 13.0 km/h 64% 0.0 mm CLR
03:09 27.3 °C 19.9 °C 1010.3 hPa NNE 9.5 km/h 14.8 km/h 64% 0.0 mm CLR
03:14 27.3 °C 19.9 °C 1010.3 hPa WNW 9.5 km/h 14.8 km/h 64% 0.0 mm CLR
03:19 27.3 °C 19.9 °C 1010.3 hPa North 8.7 km/h 13.0 km/h 64% 0.0 mm CLR
03:24 27.3 °C 19.9 °C 1010.3 hPa NW 8.7 km/h 11.1 km/h 64% 0.0 mm CLR
03:29 27.3 °C 20.2 °C 1010.3 hPa West 6.9 km/h 10.3 km/h 65% 0.0 mm CLR
03:34 27.3 °C 20.2 °C 1010.7 hPa NE 6.9 km/h 5.6 km/h 65% 0.0 mm CLR
03:39 27.3 °C 20.2 °C 1010.7 hPa NE 5.0 km/h 9.3 km/h 65% 0.0 mm CLR
03:44 27.3 °C 20.2 °C 1010.7 hPa NNE 5.0 km/h 7.4 km/h 65% 0.0 mm CLR
03:49 27.3 °C 20.2 °C 1010.4 hPa WNW 4.7 km/h 6.4 km/h 65% 0.0 mm CLR
03:54 27.3 °C 20.4 °C 1010.4 hPa WNW 4.7 km/h 6.4 km/h 66% 0.0 mm CLR
03:59 27.3 °C 20.4 °C 1010.4 hPa WNW 3.9 km/h 1.9 km/h 66% 0.0 mm CLR
04:04 27.3 °C 20.4 °C 1010.3 hPa North 3.9 km/h 7.4 km/h 66% 0.0 mm CLR
04:09 27.2 °C 20.6 °C 1010.3 hPa NNE 4.7 km/h 9.3 km/h 67% 0.0 mm CLR
04:14 27.1 °C 20.2 °C 1010.3 hPa NNE 4.7 km/h 11.9 km/h 66% 0.0 mm CLR
04:19 27.0 °C 20.1 °C 1009.8 hPa NNE 7.6 km/h 7.4 km/h 66% 0.0 mm CLR
04:24 27.0 °C 20.3 °C 1009.8 hPa North 7.6 km/h 7.4 km/h 67% 0.0 mm CLR
04:29 27.0 °C 20.3 °C 1009.8 hPa NW 4.7 km/h 3.9 km/h 67% 0.0 mm CLR
04:34 27.0 °C 20.3 °C 1010.2 hPa NW 4.7 km/h 5.6 km/h 67% 0.0 mm CLR
04:39 27.0 °C 20.3 °C 1010.2 hPa West 3.2 km/h 7.4 km/h 67% 0.0 mm CLR
04:44 27.0 °C 20.3 °C 1010.2 hPa NE 3.2 km/h 9.3 km/h 67% 0.0 mm CLR
04:49 27.1 °C 20.4 °C 1010.2 hPa ESE 5.0 km/h 11.1 km/h 67% 0.0 mm CLR
04:54 27.1 °C 20.2 °C 1010.2 hPa East 5.0 km/h 13.0 km/h 66% 0.0 mm CLR
04:59 26.9 °C 20.0 °C 1010.2 hPa SE 7.6 km/h 8.7 km/h 66% 0.0 mm CLR
05:04 26.9 °C 20.3 °C 1010.2 hPa East 7.6 km/h 13.0 km/h 67% 0.0 mm CLR
05:09 26.9 °C 20.3 °C 1010.2 hPa NE 6.4 km/h 12.2 km/h 67% 0.0 mm CLR
05:14 26.8 °C 20.2 °C 1010.2 hPa NE 6.4 km/h 18.5 km/h 67% 0.0 mm CLR
05:19 26.8 °C 19.9 °C 1009.3 hPa ENE 11.1 km/h 24.1 km/h 66% 0.0 mm CLR
05:24 26.7 °C 19.8 °C 1009.3 hPa NE 11.1 km/h 16.7 km/h 66% 0.0 mm CLR
05:29 26.7 °C 19.8 °C 1009.3 hPa NE 14.0 km/h 18.5 km/h 66% 0.0 mm CLR
05:34 26.7 °C 19.8 °C 1009.9 hPa NNE 14.0 km/h 13.0 km/h 66% 0.0 mm CLR
05:39 26.7 °C 19.6 °C 1009.9 hPa NNW 10.0 km/h 14.8 km/h 65% 0.0 mm CLR
05:44 26.8 °C 19.4 °C 1009.9 hPa WSW 10.0 km/h 14.8 km/h 64% 0.0 mm CLR
05:49 26.8 °C 19.2 °C 1010.5 hPa NW 9.5 km/h 14.8 km/h 63% 0.0 mm CLR
05:54 27.1 °C 18.4 °C 1010.5 hPa East 9.5 km/h 16.7 km/h 59% 0.0 mm CLR
05:59 27.5 °C 18.5 °C 1010.5 hPa East 9.5 km/h 16.7 km/h 58% 0.0 mm CLR
06:04 27.6 °C 18.9 °C 1010.3 hPa NNE 9.5 km/h 16.7 km/h 59% 0.0 mm CLR
06:09 27.4 °C 18.7 °C 1010.3 hPa NE 10.3 km/h 18.5 km/h 59% 0.0 mm CLR
06:14 27.4 °C 18.4 °C 1010.3 hPa NE 10.3 km/h 14.8 km/h 58% 0.0 mm CLR
06:19 27.5 °C 18.5 °C 1009.8 hPa NE 10.0 km/h 11.1 km/h 58% 0.0 mm CLR
06:24 27.6 °C 18.3 °C 1009.8 hPa North 10.0 km/h 11.1 km/h 57% 0.0 mm CLR
06:29 27.6 °C 18.3 °C 1009.8 hPa South 6.9 km/h 7.4 km/h 57% 0.0 mm CLR
06:34 27.8 °C 17.9 °C 1009.8 hPa SE 6.9 km/h 9.3 km/h 55% 0.0 mm CLR
06:39 28.6 °C 17.2 °C 1009.8 hPa SE 6.4 km/h 20.4 km/h 50% 0.0 mm CLR
06:44 28.8 °C 18.3 °C 1009.8 hPa North 6.4 km/h 16.7 km/h 53% 0.0 mm CLR
06:49 28.3 °C 18.4 °C 1010.4 hPa NNW 8.7 km/h 7.4 km/h 55% 0.0 mm CLR
06:54 27.9 °C 18.6 °C 1010.4 hPa North 8.7 km/h 9.5 km/h 57% 0.0 mm CLR
06:59 27.6 °C 18.6 °C 1010.4 hPa NE 6.4 km/h 8.4 km/h 58% 0.0 mm CLR
07:04 27.5 °C 18.5 °C 1010.1 hPa ENE 6.4 km/h 3.7 km/h 58% 0.0 mm CLR
07:09 27.4 °C 18.7 °C 1010.1 hPa NNE 3.9 km/h 5.8 km/h 59% 0.0 mm CLR
07:14 27.3 °C 18.8 °C 1010.1 hPa NW 3.9 km/h 7.4 km/h 60% 0.0 mm CLR
07:19 27.1 °C 18.9 °C 1010.2 hPa NW 4.7 km/h 7.4 km/h 61% 0.0 mm CLR
07:24 26.9 °C 19.0 °C 1010.2 hPa NW 4.7 km/h 7.6 km/h 62% 0.0 mm CLR
07:29 26.8 °C 19.2 °C 1010.2 hPa NNE 5.0 km/h 5.6 km/h 63% 0.0 mm CLR
07:34 26.7 °C 19.1 °C 1010.3 hPa North 5.0 km/h 9.3 km/h 63% 0.0 mm CLR
07:39 26.7 °C 19.1 °C 1010.3 hPa North 2.9 km/h 3.9 km/h 63% 0.0 mm CLR
07:44 26.7 °C 19.1 °C 1010.3 hPa NNE 2.9 km/h 7.4 km/h 63% 0.0 mm CLR
07:49 26.8 °C 19.2 °C 1010.5 hPa NNE 2.9 km/h 3.7 km/h 63% 0.0 mm CLR
07:54 26.8 °C 19.2 °C 1010.5 hPa NNE 2.9 km/h 3.7 km/h 63% 0.0 mm CLR
07:59 26.8 °C 19.4 °C 1010.5 hPa NNE 2.9 km/h 3.7 km/h 64% 0.0 mm CLR
08:04 26.8 °C 19.4 °C 1010.5 hPa NNE 2.9 km/h 3.7 km/h 64% 0.0 mm CLR
08:09 26.8 °C 19.4 °C 1010.5 hPa NNE 2.3 km/h   64% 0.0 mm CLR
08:14 26.9 °C 19.8 °C 1010.5 hPa NNE 2.3 km/h   65% 0.0 mm CLR
08:19 26.9 °C 19.5 °C 1010.5 hPa Calm     64% 0.0 mm CLR
08:24 27.0 °C 19.6 °C 1010.5 hPa Calm   4.7 km/h 64% 0.0 mm CLR
08:29 27.1 °C 19.7 °C 1010.5 hPa NNE 2.3 km/h 3.7 km/h 64% 0.0 mm CLR
08:34 27.2 °C 19.6 °C 1010.4 hPa NNE 2.3 km/h 3.7 km/h 63% 0.0 mm CLR
08:39 27.3 °C 19.6 °C 1010.4 hPa NNE 2.3 km/h 5.6 km/h 63% 0.0 mm CLR
08:44 27.4 °C 19.7 °C 1010.4 hPa NNE 2.3 km/h 3.9 km/h 63% 0.0 mm CLR
08:49 27.5 °C 19.8 °C 1010.3 hPa NNE 2.9 km/h 3.7 km/h 63% 0.0 mm CLR
08:54 27.7 °C 20.0 °C 1010.3 hPa NNE 2.9 km/h   63% 0.0 mm CLR
08:59 27.9 °C 19.7 °C 1010.3 hPa Calm     61% 0.0 mm CLR
09:04 28.2 °C 19.4 °C 1010.3 hPa Calm   5.6 km/h 59% 0.0 mm CLR
09:09 28.6 °C 19.2 °C 1010.3 hPa South 2.3 km/h 7.4 km/h 57% 0.0 mm CLR
09:14 28.7 °C 19.1 °C 1010.3 hPa SW 2.3 km/h 4.7 km/h 56% 0.0 mm CLR
09:19 28.8 °C 19.2 °C 1010.6 hPa SW 3.9 km/h 5.6 km/h 56% 0.0 mm CLR
09:24 29.0 °C 19.3 °C 1010.6 hPa SE 3.9 km/h 7.4 km/h 56% 0.0 mm CLR
09:29 29.2 °C 19.5 °C 1010.6 hPa ESE 2.9 km/h 3.9 km/h 56% 0.0 mm CLR
09:34 29.4 °C 19.4 °C 1010.7 hPa SSW 2.9 km/h 3.2 km/h 55% 0.0 mm CLR
09:39 29.5 °C 19.2 °C 1010.7 hPa WSW 2.9 km/h 5.0 km/h 54% 0.0 mm CLR
09:44 29.6 °C 19.6 °C 1010.7 hPa WSW 2.9 km/h   55% 0.0 mm CLR
09:49 29.7 °C 19.1 °C 1010.7 hPa NE 2.3 km/h 3.7 km/h 53% 0.0 mm CLR
09:54 29.8 °C 19.5 °C 1010.7 hPa ENE 2.3 km/h 5.6 km/h 54% 0.0 mm CLR
09:59 29.9 °C 19.6 °C 1010.7 hPa ENE 2.3 km/h 3.2 km/h 54% 0.0 mm CLR
10:04 30.0 °C 19.4 °C 1010.6 hPa NW 2.3 km/h 5.6 km/h 53% 0.0 mm CLR
10:09 29.9 °C 19.3 °C 1010.6 hPa NE 3.2 km/h 7.4 km/h 53% 0.0 mm CLR
10:14 29.9 °C 19.6 °C 1010.6 hPa NNE 3.2 km/h 7.6 km/h 54% 0.0 mm CLR
10:19 29.8 °C 18.9 °C 1010.6 hPa NE 4.7 km/h 7.4 km/h 52% 0.0 mm CLR
10:24 29.8 °C 19.5 °C 1010.6 hPa NE 4.7 km/h 6.4 km/h 54% 0.0 mm CLR
10:29 29.9 °C 19.6 °C 1010.6 hPa NE 3.9 km/h 6.9 km/h 54% 0.0 mm CLR
10:34 30.1 °C 19.4 °C 1010.5 hPa North 3.9 km/h 7.6 km/h 53% 0.0 mm CLR
10:39 30.2 °C 19.6 °C 1010.5 hPa NE 4.7 km/h 7.4 km/h 53% 0.0 mm CLR
10:44 30.3 °C 19.7 °C 1010.5 hPa NE 4.7 km/h 7.4 km/h 53% 0.0 mm CLR
10:49 30.5 °C 19.2 °C 1010.7 hPa NE 4.7 km/h 5.6 km/h 51% 0.0 mm CLR
10:54 30.7 °C 19.4 °C 1010.7 hPa NE 4.7 km/h 11.1 km/h 51% 0.0 mm CLR
10:59 30.9 °C 19.6 °C 1010.7 hPa NE 5.0 km/h 8.4 km/h 51% 0.0 mm CLR
11:04 31.1 °C 19.4 °C 1010.5 hPa SE 5.0 km/h 9.3 km/h 50% 0.0 mm CLR
11:09 31.3 °C 19.3 °C 1010.5 hPa NNE 6.4 km/h 9.3 km/h 49% 0.0 mm CLR
11:14 31.5 °C 19.2 °C 1010.5 hPa NE 6.4 km/h 9.3 km/h 48% 0.0 mm CLR
11:19 31.7 °C 19.3 °C 1010.4 hPa NE 6.4 km/h 7.4 km/h 48% 0.0 mm CLR
11:24 31.8 °C 19.1 °C 1010.4 hPa North 6.4 km/h 9.3 km/h 47% 0.0 mm CLR
11:29 31.9 °C 18.8 °C 1010.4 hPa NNE 6.9 km/h 14.8 km/h 46% 0.0 mm CLR
11:34 32.0 °C 17.8 °C 1010.1 hPa NNE 6.9 km/h 13.0 km/h 43% 0.0 mm CLR
11:39 32.3 °C 17.8 °C 1010.1 hPa NNE 10.0 km/h 14.8 km/h 42% 0.0 mm CLR
11:44 32.6 °C 18.0 °C 1010.1 hPa North 10.0 km/h 12.2 km/h 42% 0.0 mm CLR
11:49 32.9 °C 17.5 °C 1009.9 hPa NNE 8.4 km/h 13.0 km/h 40% 0.0 mm CLR
11:54 33.2 °C 17.4 °C 1009.9 hPa North 8.4 km/h 13.0 km/h 39% 0.0 mm CLR
11:59 33.4 °C 17.6 °C 1009.9 hPa NE 9.5 km/h 10.0 km/h 39% 0.0 mm CLR
12:04 33.6 °C 16.9 °C 1009.7 hPa NE 9.5 km/h 11.1 km/h 37% 0.0 mm CLR
12:09 33.7 °C 17.0 °C 1009.7 hPa NNE 8.4 km/h 11.9 km/h 37% 0.0 mm CLR
12:14 33.8 °C 17.1 °C 1009.7 hPa NNE 8.4 km/h 14.8 km/h 37% 0.0 mm CLR
12:19 34.0 °C 17.3 °C 1009.7 hPa North 8.4 km/h 13.0 km/h 37% 0.0 mm CLR
12:24 34.3 °C 17.5 °C 1009.7 hPa NNE 8.4 km/h 13.0 km/h 37% 0.0 mm CLR
12:29 34.7 °C 17.9 °C 1009.7 hPa NNE 8.4 km/h 13.0 km/h 37% 0.0 mm CLR
12:34 34.9 °C 17.2 °C 1009.7 hPa North 8.4 km/h 7.4 km/h 35% 0.0 mm CLR
12:39 35.2 °C 16.9 °C 1009.7 hPa NE 8.7 km/h 13.0 km/h 34% 0.0 mm CLR
12:44 35.3 °C 16.6 °C 1009.7 hPa NE 8.7 km/h 12.2 km/h 33% 0.0 mm CLR
12:49 35.4 °C 16.2 °C 1009.3 hPa NE 8.4 km/h 13.0 km/h 32% 0.0 mm CLR
12:54 35.5 °C 15.8 °C 1009.3 hPa NNE 8.4 km/h 13.0 km/h 31% 0.0 mm CLR
12:59 35.8 °C 16.1 °C 1009.3 hPa North 5.0 km/h 12.2 km/h 31% 0.0 mm CLR
13:04 35.9 °C 16.1 °C 1009.1 hPa North 5.0 km/h 11.1 km/h 31% 0.0 mm CLR
13:09 36.3 °C 16.4 °C 1009.1 hPa NNW 5.8 km/h 8.7 km/h 31% 0.0 mm CLR
13:14 36.6 °C 16.2 °C 1009.1 hPa NNE 5.8 km/h 11.1 km/h 30% 0.0 mm CLR
13:19 36.7 °C 16.3 °C 1009.0 hPa NNW 7.6 km/h 11.1 km/h 30% 0.0 mm CLR
13:24 36.8 °C 15.3 °C 1009.0 hPa WNW 7.6 km/h 16.7 km/h 28% 0.0 mm CLR
13:29 36.8 °C 15.3 °C 1009.0 hPa NE 8.7 km/h 10.0 km/h 28% 0.0 mm CLR
13:34 36.9 °C 15.9 °C 1009.0 hPa ESE 8.7 km/h 7.4 km/h 29% 0.0 mm CLR
13:39 37.2 °C 13.9 °C 1009.0 hPa SSE 8.4 km/h 20.4 km/h 25% 0.0 mm CLR
13:44 37.4 °C 14.1 °C 1009.0 hPa South 8.4 km/h 27.8 km/h 25% 0.0 mm CLR
13:49 37.6 °C 13.6 °C 1008.9 hPa SSW 19.0 km/h 27.8 km/h 24% 0.0 mm CLR
13:54 37.6 °C 13.6 °C 1008.9 hPa SSE 19.0 km/h 25.9 km/h 24% 0.0 mm CLR
13:59 37.5 °C 13.5 °C 1008.9 hPa SSE 16.1 km/h 27.8 km/h 24% 0.0 mm CLR
14:04 37.6 °C 13.6 °C 1008.8 hPa SSE 16.1 km/h 22.2 km/h 24% 0.0 mm CLR
14:09 37.7 °C 13.7 °C 1008.8 hPa South 14.8 km/h 22.2 km/h 24% 0.0 mm CLR
14:14 37.8 °C 13.1 °C 1008.8 hPa South 14.8 km/h 25.9 km/h 23% 0.0 mm CLR
14:19 37.9 °C 13.2 °C 1008.5 hPa SE 16.1 km/h 22.2 km/h 23% 0.0 mm CLR
14:24 38.0 °C 13.3 °C 1008.5 hPa SSW 16.1 km/h 33.3 km/h 23% 0.0 mm CLR
14:29 38.0 °C 13.3 °C 1008.5 hPa South 18.3 km/h 25.1 km/h 23% 0.0 mm CLR
14:34 37.9 °C 13.2 °C 1008.3 hPa South 18.3 km/h 29.1 km/h 23% 0.0 mm CLR
14:39 37.9 °C 13.2 °C 1008.3 hPa South 22.0 km/h 29.6 km/h 23% 0.0 mm CLR
14:44 38.1 °C 13.3 °C 1008.3 hPa SSW 22.0 km/h 25.9 km/h 23% 0.0 mm CLR
14:49 38.3 °C 13.5 °C 1008.0 hPa South 14.0 km/h 22.2 km/h 23% 0.0 mm CLR
14:54 38.6 °C 13.1 °C 1008.0 hPa SW 14.0 km/h 25.6 km/h 22% 0.0 mm CLR
14:59 38.8 °C 13.3 °C 1008.0 hPa South 14.8 km/h 22.0 km/h 22% 0.0 mm CLR
15:04 39.0 °C 12.7 °C 1007.9 hPa SW 14.8 km/h 22.2 km/h 21% 0.0 mm CLR
15:09 38.9 °C 12.6 °C 1007.9 hPa SSE 14.8 km/h 31.7 km/h 21% 0.0 mm CLR
15:14 38.8 °C 13.3 °C 1007.9 hPa SSE 14.8 km/h 29.6 km/h 22% 0.0 mm CLR
15:19 38.7 °C 13.2 °C 1007.8 hPa South 18.0 km/h 18.0 km/h 22% 0.0 mm CLR
15:24 38.6 °C 13.1 °C 1007.8 hPa South 18.0 km/h 22.2 km/h 22% 0.0 mm CLR
15:29 38.5 °C 13.0 °C 1007.8 hPa South 14.0 km/h 22.2 km/h 22% 0.0 mm CLR
15:34 38.4 °C 12.9 °C 1007.8 hPa South 14.0 km/h 24.1 km/h 22% 0.0 mm CLR
15:39 38.4 °C 12.9 °C 1007.8 hPa SSW 15.6 km/h 21.7 km/h 22% 0.0 mm CLR
15:44 38.5 °C 13.0 °C 1007.8 hPa South 15.6 km/h 27.8 km/h 22% 0.0 mm CLR
15:49 38.5 °C 13.0 °C 1007.8 hPa SE 15.6 km/h 31.5 km/h 22% 0.0 mm CLR
15:54 38.4 °C 12.9 °C 1007.8 hPa SSE 15.6 km/h 25.9 km/h 22% 0.0 mm CLR
15:59 38.3 °C 12.8 °C 1007.8 hPa SSW 18.0 km/h 28.2 km/h 22% 0.0 mm CLR
16:04 38.4 °C 13.6 °C 1007.8 hPa SSW 18.0 km/h 25.9 km/h 23% 0.0 mm CLR
16:09 38.4 °C 12.9 °C 1007.8 hPa South 15.6 km/h 19.8 km/h 22% 0.0 mm CLR
16:14 38.4 °C 12.9 °C 1007.8 hPa SSW 15.6 km/h 31.5 km/h 22% 0.0 mm CLR
16:19 38.3 °C 12.8 °C 1007.7 hPa South 16.4 km/h 14.8 km/h 22% 0.0 mm CLR
16:24 38.2 °C 12.8 °C 1007.7 hPa SSW 16.4 km/h 18.5 km/h 22% 0.0 mm CLR
16:29 38.2 °C 12.8 °C 1007.7 hPa South 14.0 km/h 25.9 km/h 22% 0.0 mm CLR
16:34 38.1 °C 12.7 °C 1007.6 hPa SSW 14.0 km/h 24.1 km/h 22% 0.0 mm CLR
16:39 38.1 °C 12.7 °C 1007.6 hPa SE 18.3 km/h 29.6 km/h 22% 0.0 mm CLR
16:44 37.9 °C 13.2 °C 1007.6 hPa SSE 18.3 km/h 31.5 km/h 23% 0.0 mm CLR
16:49 37.9 °C 12.5 °C 1007.3 hPa South 21.7 km/h 40.7 km/h 22% 0.0 mm CLR
16:54 37.7 °C 13.0 °C 1007.3 hPa SE 21.7 km/h 40.7 km/h 23% 0.0 mm CLR
16:59 37.8 °C 13.1 °C 1007.3 hPa South 26.2 km/h 44.4 km/h 23% 0.0 mm CLR
17:04 37.9 °C 12.5 °C 1007.0 hPa South 26.2 km/h 48.1 km/h 22% 0.0 mm CLR
17:09 37.8 °C 13.1 °C 1007.0 hPa SSE 24.5 km/h 31.5 km/h 23% 0.0 mm CLR
17:14 37.8 °C 13.1 °C 1007.0 hPa SW 24.5 km/h 33.3 km/h 23% 0.0 mm CLR
17:19 37.8 °C 13.1 °C 1006.8 hPa South 19.8 km/h 27.8 km/h 23% 0.0 mm CLR
17:24 37.8 °C 13.1 °C 1006.8 hPa South 19.8 km/h 37.0 km/h 23% 0.0 mm CLR
17:29 37.8 °C 13.1 °C 1006.8 hPa SSW 25.1 km/h 37.0 km/h 23% 0.0 mm CLR
17:34 37.8 °C 13.1 °C 1006.6 hPa South 25.1 km/h 39.6 km/h 23% 0.0 mm CLR
17:39 37.7 °C 13.0 °C 1006.6 hPa SSE 26.2 km/h 38.9 km/h 23% 0.0 mm CLR
17:44 37.7 °C 13.0 °C 1006.6 hPa SW 26.2 km/h 25.1 km/h 23% 0.0 mm CLR
17:49 37.7 °C 13.0 °C 1006.4 hPa SSE 22.5 km/h 24.1 km/h 23% 0.0 mm CLR
17:54 37.8 °C 13.1 °C 1006.4 hPa South 22.5 km/h 33.3 km/h 23% 0.0 mm CLR
17:59 37.9 °C 13.2 °C 1006.4 hPa SE 19.0 km/h 16.7 km/h 23% 0.0 mm CLR
18:04 38.2 °C 13.4 °C 1006.0 hPa SSE 19.0 km/h 22.2 km/h 23% 0.0 mm CLR
18:09 38.0 °C 12.6 °C 1006.0 hPa SSE 16.1 km/h 25.9 km/h 22% 0.0 mm CLR
18:14 38.0 °C 13.3 °C 1006.0 hPa SE 16.1 km/h 20.4 km/h 23% 0.0 mm CLR
18:19 37.9 °C 13.2 °C 1005.8 hPa SE 14.0 km/h 22.2 km/h 23% 0.0 mm CLR
18:24 37.7 °C 13.0 °C 1005.8 hPa SSE 14.0 km/h 27.8 km/h 23% 0.0 mm CLR
18:29 37.6 °C 12.9 °C 1005.8 hPa South 15.6 km/h 22.0 km/h 23% 0.0 mm CLR
18:34 37.4 °C 13.4 °C 1006.0 hPa SE 15.6 km/h 14.8 km/h 24% 0.0 mm CLR
18:39 37.3 °C 13.3 °C 1006.0 hPa SSE 15.6 km/h 29.6 km/h 24% 0.0 mm CLR
18:44 37.2 °C 13.3 °C 1006.0 hPa SSW 15.6 km/h 24.1 km/h 24% 0.0 mm CLR
18:49 37.1 °C 13.2 °C 1005.7 hPa SE 14.8 km/h 20.4 km/h 24% 0.0 mm CLR
18:54 37.0 °C 13.1 °C 1005.7 hPa South 14.8 km/h 13.0 km/h 24% 0.0 mm CLR
18:59 36.9 °C 13.6 °C 1005.7 hPa SE 10.0 km/h 18.5 km/h 25% 0.0 mm CLR
19:04 36.9 °C 13.6 °C 1005.7 hPa East 10.0 km/h 11.1 km/h 25% 0.0 mm CLR
19:09 36.8 °C 14.7 °C 1005.7 hPa ESE 10.3 km/h 16.7 km/h 27% 0.0 mm CLR
19:14 36.6 °C 14.6 °C 1005.7 hPa East 10.3 km/h 20.4 km/h 27% 0.0 mm CLR
19:19 36.4 °C 14.4 °C 1005.9 hPa SE 12.2 km/h 13.0 km/h 27% 0.0 mm CLR
19:24 36.3 °C 14.9 °C 1005.9 hPa ESE 12.2 km/h 13.7 km/h 28% 0.0 mm CLR
19:29 36.2 °C 14.8 °C 1005.9 hPa East 7.6 km/h 13.0 km/h 28% 0.0 mm CLR
19:34 35.9 °C 15.1 °C 1005.8 hPa East 7.6 km/h 14.8 km/h 29% 0.0 mm CLR
19:39 35.7 °C 14.9 °C 1005.8 hPa ESE 10.0 km/h 16.7 km/h 29% 0.0 mm CLR
19:44 35.4 °C 14.7 °C 1005.8 hPa ESE 10.0 km/h 16.1 km/h 29% 0.0 mm CLR
19:49 35.3 °C 15.1 °C 1006.1 hPa ESE 11.1 km/h 14.8 km/h 30% 0.0 mm CLR
19:54 35.2 °C 15.0 °C 1006.1 hPa SE 11.1 km/h 25.6 km/h 30% 0.0 mm CLR
19:59 35.0 °C 14.8 °C 1006.1 hPa SSE 16.4 km/h 22.2 km/h 30% 0.0 mm CLR
20:04 35.0 °C 14.8 °C 1006.5 hPa South 16.4 km/h 16.4 km/h 30% 0.0 mm CLR
20:09 34.9 °C 14.8 °C 1006.5 hPa SSE 14.8 km/h 25.9 km/h 30% 0.0 mm CLR
20:14 34.6 °C 15.5 °C 1006.5 hPa South 14.8 km/h 40.7 km/h 32% 0.0 mm CLR
20:19 33.8 °C 15.7 °C 1006.9 hPa SSE 18.0 km/h 36.2 km/h 34% 0.0 mm CLR
20:24 33.2 °C 16.1 °C 1006.9 hPa ESE 18.0 km/h 22.2 km/h 36% 0.0 mm CLR
20:29 32.8 °C 15.8 °C 1006.9 hPa SE 18.3 km/h 20.4 km/h 36% 0.0 mm CLR
20:34 32.8 °C 16.2 °C 1006.6 hPa NE 18.3 km/h 5.6 km/h 37% 0.0 mm CLR
20:39 32.7 °C 16.1 °C 1006.6 hPa NW 6.9 km/h 11.1 km/h 37% 0.0 mm CLR
20:44 32.6 °C 16.4 °C 1006.6 hPa NNE 6.9 km/h 11.1 km/h 38% 0.0 mm CLR
20:49 32.3 °C 16.2 °C 1006.7 hPa NE 8.4 km/h 16.7 km/h 38% 0.0 mm CLR
20:54 32.2 °C 16.5 °C 1006.7 hPa NE 8.4 km/h 11.1 km/h 39% 0.0 mm CLR
20:59 32.2 °C 16.1 °C 1006.7 hPa ENE 6.4 km/h 5.6 km/h 38% 0.0 mm CLR
21:04 32.2 °C 16.5 °C 1006.6 hPa ENE 6.4 km/h   39% 0.0 mm CLR
21:09 32.2 °C 16.5 °C 1006.6 hPa Calm   2.9 km/h 39% 0.0 mm CLR
21:14 32.2 °C 16.1 °C 1006.6 hPa Calm   7.4 km/h 38% 0.0 mm CLR
21:19 32.1 °C 16.4 °C 1006.4 hPa NW 3.2 km/h 7.4 km/h 39% 0.0 mm CLR
21:24 31.9 °C 16.2 °C 1006.4 hPa NNE 3.2 km/h 9.3 km/h 39% 0.0 mm CLR
21:29 31.8 °C 16.6 °C 1006.4 hPa NNW 5.8 km/h 5.6 km/h 40% 0.0 mm CLR
21:34 31.6 °C 16.3 °C 1006.5 hPa NE 5.8 km/h 9.3 km/h 40% 0.0 mm CLR
21:39 31.4 °C 16.6 °C 1006.5 hPa NE 5.8 km/h 7.4 km/h 41% 0.0 mm CLR
21:44 31.4 °C 16.6 °C 1006.5 hPa North 5.8 km/h 5.6 km/h 41% 0.0 mm CLR
21:49 31.3 °C 16.5 °C 1006.8 hPa NNW 3.9 km/h 11.1 km/h 41% 0.0 mm CLR
21:54 31.1 °C 16.7 °C 1006.8 hPa ENE 3.9 km/h 9.3 km/h 42% 0.0 mm CLR
21:59 30.8 °C 16.4 °C 1006.8 hPa NNE 5.8 km/h 7.4 km/h 42% 0.0 mm CLR
22:04 30.7 °C 16.3 °C 1007.1 hPa NNE 5.8 km/h 7.4 km/h 42% 0.0 mm CLR
22:09 30.6 °C 16.6 °C 1007.1 hPa ESE 6.4 km/h 7.4 km/h 43% 0.0 mm CLR
22:14 30.5 °C 16.5 °C 1007.1 hPa ESE 6.4 km/h 3.7 km/h 43% 0.0 mm CLR
22:19 30.4 °C 16.4 °C 1008.2 hPa ENE 3.9 km/h 3.7 km/h 43% 0.0 mm CLR
22:24 30.4 °C 16.4 °C 1008.2 hPa NE 3.9 km/h 7.4 km/h 43% 0.0 mm CLR
22:29 30.3 °C 16.7 °C 1008.2 hPa NE 3.9 km/h 5.6 km/h 44% 0.0 mm CLR
22:34 30.2 °C 16.6 °C 1008.7 hPa ENE 3.9 km/h 9.5 km/h 44% 0.0 mm CLR
22:39 30.1 °C 16.8 °C 1008.7 hPa NE 6.9 km/h 13.0 km/h 45% 0.0 mm CLR
22:44 29.9 °C 16.7 °C 1008.7 hPa ENE 6.9 km/h 11.1 km/h 45% 0.0 mm CLR
22:49 29.9 °C 17.0 °C 1008.6 hPa NNE 6.9 km/h 13.0 km/h 46% 0.0 mm CLR
22:54 29.7 °C 16.8 °C 1008.6 hPa NNW 6.9 km/h 9.3 km/h 46% 0.0 mm CLR
22:59 29.6 °C 17.1 °C 1008.6 hPa East 6.9 km/h 7.4 km/h 47% 0.0 mm CLR
23:04 29.4 °C 17.2 °C 1009.1 hPa NNW 6.9 km/h 14.8 km/h 48% 0.0 mm CLR
23:09 29.3 °C 18.1 °C 1009.1 hPa NNE 8.4 km/h 14.8 km/h 51% 0.0 mm CLR
23:14 29.1 °C 18.8 °C 1009.1 hPa NE 8.4 km/h 16.7 km/h 54% 0.0 mm CLR
23:19 28.8 °C 18.8 °C 1009.4 hPa North 11.1 km/h 18.5 km/h 55% 0.0 mm CLR
23:24 28.7 °C 19.1 °C 1009.4 hPa NE 11.1 km/h 20.4 km/h 56% 0.0 mm CLR
23:29 28.6 °C 18.9 °C 1009.4 hPa NE 13.0 km/h 16.7 km/h 56% 0.0 mm CLR
23:34 28.6 °C 18.9 °C 1009.2 hPa NNE 13.0 km/h 22.2 km/h 56% 0.0 mm CLR
23:39 28.7 °C 18.8 °C 1009.2 hPa NE 16.4 km/h 27.8 km/h 55% 0.0 mm CLR
23:44 28.8 °C 17.9 °C 1009.2 hPa East 16.4 km/h 14.8 km/h 52% 0.0 mm CLR
23:49 28.9 °C 17.7 °C 1009.1 hPa NW 9.5 km/h 9.3 km/h 51% 0.0 mm CLR
23:54 29.0 °C 17.5 °C 1009.1 hPa East 9.5 km/h 13.0 km/h 50% 0.0 mm CLR
23:59 29.1 °C 16.9 °C 1009.1 hPa NE 7.6 km/h 14.8 km/h 48% 0.0 mm CLR
Murcia-Puente Tocinos, España
Compliments of Weather Underground - 2.75 mb

La estación de MeteoMurcia.com, publica sus datos en los siguientes proyectos:

Weather Underground PWS IMURCIAP2 Meteoclimatic www.awekas.at

W3Counter
Web Analytics